createdAt,value
2023-03-03T00:01:07.215Z,2.06
2023-03-03T00:03:35.714Z,1.99
2023-03-03T00:06:05.515Z,1.98
2023-03-03T00:08:34.973Z,2.01
2023-03-03T00:11:05.122Z,2.02
2023-03-03T00:13:36.593Z,2.02
2023-03-03T00:16:15.255Z,2.00
2023-03-03T00:18:46.205Z,1.98
2023-03-03T00:21:25.848Z,1.98
2023-03-03T00:23:55.508Z,1.99
2023-03-03T00:26:28.250Z,1.98
2023-03-03T00:28:57.164Z,1.95
2023-03-03T00:31:30.755Z,1.95
2023-03-03T00:34:04.100Z,1.91
2023-03-03T00:36:38.202Z,1.94
2023-03-03T00:39:21.148Z,1.92
2023-03-03T00:41:49.913Z,1.90
2023-03-03T00:44:43.860Z,1.83
2023-03-03T00:47:31.974Z,1.88
2023-03-03T00:50:24.694Z,1.81
2023-03-03T00:53:01.967Z,1.83
2023-03-03T00:55:32.543Z,1.74
2023-03-03T00:58:01.444Z,1.73
2023-03-03T01:00:34.628Z,1.73
2023-03-03T01:03:06.676Z,1.76
2023-03-03T01:05:35.217Z,1.78
2023-03-03T01:08:03.916Z,1.65
2023-03-03T01:10:37.097Z,1.35
2023-03-03T01:13:06.238Z,1.27
2023-03-03T01:15:34.475Z,1.34
2023-03-03T01:18:02.757Z,1.38
2023-03-03T01:20:30.896Z,1.42
2023-03-03T01:22:59.019Z,1.36
2023-03-03T01:25:27.164Z,1.40
2023-03-03T01:27:56.625Z,1.39
2023-03-03T01:30:26.388Z,1.58
2023-03-03T01:32:54.697Z,1.70
2023-03-03T01:35:23.030Z,1.71
2023-03-03T01:37:51.257Z,1.73
2023-03-03T01:40:23.496Z,1.73
2023-03-03T01:42:52.729Z,1.73
2023-03-03T01:45:24.548Z,1.68
2023-03-03T01:48:01.285Z,1.62
2023-03-03T01:50:34.160Z,1.58
2023-03-03T01:53:05.467Z,1.59
2023-03-03T01:55:37.779Z,1.62
2023-03-03T01:58:10.128Z,1.64
2023-03-03T02:00:42.377Z,1.56
2023-03-03T02:03:11.118Z,1.57
2023-03-03T02:05:41.342Z,1.59
2023-03-03T02:08:13.106Z,1.60
2023-03-03T02:10:41.802Z,1.50
2023-03-03T02:13:09.909Z,1.49
2023-03-03T02:15:39.406Z,1.49
2023-03-03T02:18:11.083Z,1.43
2023-03-03T02:20:52.036Z,1.43
2023-03-03T02:23:25.447Z,1.41
2023-03-03T02:26:17.404Z,1.35
2023-03-03T02:28:47.110Z,1.32
2023-03-03T02:31:17.938Z,1.29
2023-03-03T02:33:48.464Z,1.25
2023-03-03T02:36:18.695Z,1.24
2023-03-03T02:38:53.718Z,1.22
2023-03-03T02:41:30.307Z,1.17
2023-03-03T02:44:04.519Z,1.12
2023-03-03T02:46:35.540Z,1.04
2023-03-03T02:49:05.432Z,1.06
2023-03-03T02:51:34.189Z,0.99
2023-03-03T02:54:03.350Z,1.03
2023-03-03T02:56:33.846Z,0.96
2023-03-03T02:59:03.753Z,1.01
2023-03-03T03:01:37.264Z,0.98
2023-03-03T03:04:10.993Z,0.96
2023-03-03T03:06:44.003Z,0.93
2023-03-03T03:09:14.388Z,0.93
2023-03-03T03:11:42.909Z,0.91
2023-03-03T03:14:14.549Z,0.84
2023-03-03T03:16:44.410Z,0.91
2023-03-03T03:19:12.577Z,0.83
2023-03-03T03:21:41.726Z,0.97
2023-03-03T03:24:11.212Z,1.02
2023-03-03T03:26:43.141Z,1.00
2023-03-03T03:29:13.157Z,1.01
2023-03-03T03:31:43.830Z,1.04
2023-03-03T03:34:12.266Z,1.05
2023-03-03T03:36:40.437Z,1.10
2023-03-03T03:39:09.295Z,1.13
2023-03-03T03:41:42.720Z,0.81
2023-03-03T03:44:12.414Z,0.75
2023-03-03T03:46:40.600Z,0.70
2023-03-03T03:49:09.221Z,0.62
2023-03-03T03:51:41.411Z,0.80
2023-03-03T03:54:12.229Z,0.68
2023-03-03T03:56:41.205Z,0.80
2023-03-03T03:59:09.682Z,0.76
2023-03-03T04:01:40.207Z,0.78
2023-03-03T04:04:08.441Z,0.83
2023-03-03T04:06:36.806Z,0.82
2023-03-03T04:09:07.106Z,0.86
2023-03-03T04:11:35.412Z,0.85
2023-03-03T04:14:06.105Z,0.90
2023-03-03T04:16:36.250Z,0.90
2023-03-03T04:19:06.073Z,0.90
2023-03-03T04:21:36.864Z,0.88
2023-03-03T04:24:05.135Z,0.87
2023-03-03T04:26:35.143Z,0.79
2023-03-03T04:29:04.755Z,0.74
2023-03-03T04:31:33.268Z,0.78
2023-03-03T04:34:02.096Z,0.77
2023-03-03T04:36:32.456Z,0.73
2023-03-03T04:39:00.851Z,0.71
2023-03-03T04:41:29.453Z,0.58
2023-03-03T04:43:57.790Z,0.62
2023-03-03T04:46:26.034Z,0.62
2023-03-03T04:48:54.193Z,0.63
2023-03-03T04:51:22.726Z,0.67
2023-03-03T04:53:52.256Z,0.78
2023-03-03T04:56:20.313Z,0.65
2023-03-03T04:58:50.482Z,0.40
2023-03-03T05:01:19.751Z,0.50
2023-03-03T05:03:48.220Z,0.45
2023-03-03T05:06:18.824Z,0.34
2023-03-03T05:08:47.294Z,0.58
2023-03-03T05:11:16.769Z,0.55
2023-03-03T05:13:44.884Z,0.59
2023-03-03T05:16:13.418Z,0.67
2023-03-03T05:18:41.664Z,0.67
2023-03-03T05:21:09.733Z,0.67
2023-03-03T05:23:38.031Z,0.69
2023-03-03T05:26:06.746Z,0.72
2023-03-03T05:28:36.201Z,0.75
2023-03-03T05:31:04.429Z,0.80
2023-03-03T05:33:32.618Z,0.74
2023-03-03T05:36:00.735Z,0.87
2023-03-03T05:38:28.982Z,0.94
2023-03-03T05:41:00.334Z,0.95
2023-03-03T05:43:29.735Z,0.95
2023-03-03T05:45:59.573Z,0.92
2023-03-03T05:48:27.783Z,0.51
2023-03-03T05:50:55.970Z,0.63
2023-03-03T05:53:24.353Z,1.00
2023-03-03T05:55:52.589Z,0.98
2023-03-03T05:58:20.707Z,1.03
2023-03-03T06:00:48.844Z,1.20
2023-03-03T06:03:18.393Z,1.25
2023-03-03T06:05:46.555Z,1.27
2023-03-03T06:08:14.903Z,1.30
2023-03-03T06:10:42.910Z,0.95
2023-03-03T06:13:12.842Z,1.14
2023-03-03T06:15:41.022Z,1.18
2023-03-03T06:18:10.234Z,1.46
2023-03-03T06:20:39.831Z,1.59
2023-03-03T06:23:07.915Z,1.46
2023-03-03T06:25:36.022Z,1.30
2023-03-03T06:28:05.040Z,0.87
2023-03-03T06:30:33.071Z,0.73
2023-03-03T06:33:03.240Z,0.83
2023-03-03T06:35:31.331Z,0.82
2023-03-03T06:38:00.789Z,0.58
2023-03-03T06:40:28.882Z,0.70
2023-03-03T06:42:57.116Z,0.65
2023-03-03T06:45:25.190Z,0.55
2023-03-03T06:47:53.347Z,0.92
2023-03-03T06:50:22.319Z,1.06
2023-03-03T06:52:50.877Z,0.96
2023-03-03T06:55:24.522Z,0.76
2023-03-03T06:57:55.921Z,0.80
2023-03-03T07:00:28.958Z,0.32
2023-03-03T07:03:01.433Z,0.68
2023-03-03T07:05:30.484Z,0.80
2023-03-03T07:07:58.909Z,1.11
2023-03-03T07:10:30.044Z,1.23
2023-03-03T07:13:18.098Z,1.15
2023-03-03T07:15:46.624Z,1.33
2023-03-03T07:18:29.963Z,1.45
2023-03-03T07:20:58.141Z,1.18
2023-03-03T07:23:29.839Z,1.65
2023-03-03T07:25:59.477Z,1.43
2023-03-03T07:28:29.282Z,1.10
2023-03-03T07:30:59.239Z,1.46
2023-03-03T07:33:29.475Z,1.49
2023-03-03T07:35:59.393Z,1.87
2023-03-03T07:38:33.092Z,2.20
2023-03-03T07:41:05.088Z,1.81
2023-03-03T07:43:37.677Z,1.06
2023-03-03T07:46:29.182Z,1.83
2023-03-03T07:48:58.840Z,2.15
2023-03-03T07:51:29.530Z,2.26
2023-03-03T07:54:17.186Z,1.94
2023-03-03T07:56:46.594Z,1.76
2023-03-03T07:59:22.097Z,0.91
2023-03-03T08:01:53.505Z,1.16
2023-03-03T08:04:25.253Z,1.38
2023-03-03T08:06:56.431Z,1.71
2023-03-03T08:09:45.266Z,1.84
2023-03-03T08:12:42.994Z,1.79
2023-03-03T08:15:26.176Z,1.83
2023-03-03T08:17:56.248Z,2.03
2023-03-03T08:20:53.114Z,1.13
2023-03-03T08:23:21.944Z,1.34
2023-03-03T08:25:51.893Z,1.66
2023-03-03T08:28:22.014Z,1.40
2023-03-03T08:30:50.627Z,1.18
2023-03-03T08:33:19.250Z,1.64
2023-03-03T08:35:47.751Z,1.43
2023-03-03T08:38:18.702Z,1.72
2023-03-03T08:40:47.363Z,1.82
2023-03-03T08:43:17.435Z,2.29
2023-03-03T08:45:47.929Z,2.26
2023-03-03T08:48:16.743Z,2.06
2023-03-03T08:50:45.376Z,1.53
2023-03-03T08:53:14.392Z,2.31
2023-03-03T08:55:43.260Z,1.95
2023-03-03T08:58:11.466Z,1.78
2023-03-03T09:00:39.725Z,1.84
2023-03-03T09:03:09.797Z,1.62
2023-03-03T09:05:39.736Z,1.84
2023-03-03T09:08:09.346Z,1.17
2023-03-03T09:10:37.737Z,1.41
2023-03-03T09:13:11.847Z,1.88
2023-03-03T09:15:40.256Z,1.85
2023-03-03T09:18:16.688Z,1.40
2023-03-03T09:20:46.435Z,2.38
2023-03-03T09:23:36.103Z,3.22
2023-03-03T09:26:28.267Z,3.72
2023-03-03T09:29:01.690Z,4.24
2023-03-03T09:31:37.857Z,3.82
2023-03-03T09:34:17.274Z,3.93
2023-03-03T09:36:45.623Z,3.52
2023-03-03T09:39:19.471Z,3.97
2023-03-03T09:42:19.411Z,3.13
2023-03-03T09:45:18.043Z,3.68
2023-03-03T09:47:59.234Z,3.57
2023-03-03T09:50:36.629Z,4.87
2023-03-03T09:53:19.541Z,5.14
2023-03-03T09:55:55.450Z,5.53
2023-03-03T09:58:45.891Z,5.10
2023-03-03T10:01:41.433Z,4.90
2023-03-03T10:04:37.284Z,4.83
2023-03-03T10:07:20.394Z,5.31
2023-03-03T10:10:04.626Z,5.39
2023-03-03T10:12:39.429Z,4.30
2023-03-03T10:15:23.094Z,4.21
2023-03-03T10:17:53.302Z,4.83
2023-03-03T10:20:40.424Z,4.98
2023-03-03T10:23:41.237Z,4.88
2023-03-03T10:26:20.404Z,4.19
2023-03-03T10:29:22.090Z,4.75
2023-03-03T10:32:03.719Z,4.65
2023-03-03T10:34:51.984Z,4.93
2023-03-03T10:37:29.545Z,4.56
2023-03-03T10:40:15.309Z,4.36
2023-03-03T10:43:03.989Z,4.66
2023-03-03T10:46:07.913Z,4.02
2023-03-03T10:49:03.493Z,4.53
2023-03-03T10:51:41.701Z,5.01
2023-03-03T10:54:30.553Z,3.89
2023-03-03T10:57:08.757Z,4.61
2023-03-03T10:59:55.106Z,4.76
2023-03-03T11:02:30.744Z,3.76
2023-03-03T11:05:17.043Z,4.32
2023-03-03T11:07:49.260Z,4.48
2023-03-03T11:10:31.901Z,4.80
2023-03-03T11:13:15.979Z,3.89
2023-03-03T11:15:55.610Z,3.38
2023-03-03T11:18:33.616Z,3.12
2023-03-03T11:21:14.491Z,3.27
2023-03-03T11:24:03.358Z,3.65
2023-03-03T11:26:54.662Z,3.98
2023-03-03T11:29:43.830Z,3.68
2023-03-03T11:32:23.001Z,3.73
2023-03-03T11:35:01.420Z,3.64
2023-03-03T11:37:38.378Z,4.15
2023-03-03T11:40:18.187Z,3.87
2023-03-03T11:43:01.545Z,4.10
2023-03-03T11:45:39.561Z,3.40
2023-03-03T11:48:16.102Z,3.22
2023-03-03T11:50:53.808Z,3.43
2023-03-03T11:53:33.156Z,3.29
2023-03-03T11:56:08.528Z,3.16
2023-03-03T11:58:44.141Z,2.99
2023-03-03T12:01:22.019Z,3.36
2023-03-03T12:03:54.724Z,2.74
2023-03-03T12:06:31.645Z,3.16
2023-03-03T12:09:10.578Z,3.23
2023-03-03T12:11:48.343Z,2.89
2023-03-03T12:14:33.139Z,3.37
2023-03-03T12:17:07.886Z,3.17
2023-03-03T12:19:50.205Z,2.85
2023-03-03T12:22:34.111Z,3.06
2023-03-03T12:25:23.400Z,3.07
2023-03-03T12:27:56.001Z,3.25
2023-03-03T12:30:48.198Z,2.01
2023-03-03T12:33:28.136Z,2.84
2023-03-03T12:36:06.332Z,2.66
2023-03-03T12:38:41.863Z,3.20
2023-03-03T12:41:20.453Z,2.61
2023-03-03T12:44:00.294Z,2.76
2023-03-03T12:46:40.745Z,2.76
2023-03-03T12:49:10.280Z,2.61
2023-03-03T12:51:49.581Z,2.43
2023-03-03T12:54:53.710Z,2.11
2023-03-03T12:57:32.502Z,2.54
2023-03-03T13:00:20.508Z,2.42
2023-03-03T13:02:59.735Z,2.52
2023-03-03T13:05:34.480Z,2.65
2023-03-03T13:08:31.250Z,2.25
2023-03-03T13:11:08.354Z,2.30
2023-03-03T13:13:45.433Z,1.48
2023-03-03T13:16:17.464Z,2.19
2023-03-03T13:18:56.476Z,1.90
2023-03-03T13:21:32.008Z,2.51
2023-03-03T13:24:06.954Z,2.06
2023-03-03T13:26:38.313Z,2.03
2023-03-03T13:29:16.454Z,1.53
2023-03-03T13:31:50.728Z,1.35
2023-03-03T13:34:32.625Z,1.31
2023-03-03T13:37:08.321Z,1.49
2023-03-03T13:39:42.834Z,1.91
2023-03-03T13:42:20.886Z,2.04
2023-03-03T13:44:51.480Z,1.80
2023-03-03T13:47:27.163Z,2.24
2023-03-03T13:50:15.583Z,1.87
2023-03-03T13:52:55.388Z,1.79
2023-03-03T13:55:30.745Z,1.97
2023-03-03T13:58:08.327Z,2.24
2023-03-03T14:00:49.866Z,2.81
2023-03-03T14:03:40.154Z,2.25
2023-03-03T14:06:15.398Z,2.98
2023-03-03T14:09:21.290Z,2.18
2023-03-03T14:11:54.815Z,0.82
2023-03-03T14:14:35.729Z,0.93
2023-03-03T14:17:05.991Z,0.78
2023-03-03T14:19:38.020Z,0.51
2023-03-03T14:22:16.631Z,0.95
2023-03-03T14:25:07.848Z,1.13
2023-03-03T14:27:39.304Z,0.91
2023-03-03T14:30:29.918Z,1.53
2023-03-03T14:33:17.271Z,1.01
2023-03-03T14:35:51.984Z,0.93
2023-03-03T14:38:24.598Z,0.72
2023-03-03T14:41:14.102Z,0.98
2023-03-03T14:43:43.869Z,1.19
2023-03-03T14:46:36.510Z,1.27
2023-03-03T14:49:07.435Z,0.89
2023-03-03T14:51:42.874Z,1.07
2023-03-03T14:54:20.610Z,1.12
2023-03-03T14:57:14.331Z,1.14
2023-03-03T14:59:57.304Z,1.32
2023-03-03T15:02:36.264Z,1.47
2023-03-03T15:05:25.342Z,0.96
2023-03-03T15:07:56.826Z,0.91
2023-03-03T15:10:35.029Z,0.98
2023-03-03T15:13:32.081Z,0.62
2023-03-03T15:16:12.626Z,0.79
2023-03-03T15:19:16.376Z,0.91
2023-03-03T15:21:52.905Z,0.89
2023-03-03T15:24:27.699Z,0.76
2023-03-03T15:27:00.933Z,1.21
2023-03-03T15:29:38.395Z,0.96
2023-03-03T15:32:15.838Z,0.92
2023-03-03T15:34:49.755Z,0.94
2023-03-03T15:37:33.194Z,1.01
2023-03-03T15:40:12.310Z,1.06
2023-03-03T15:42:48.399Z,0.70
2023-03-03T15:45:26.383Z,0.87
2023-03-03T15:48:10.539Z,1.09
2023-03-03T15:50:51.743Z,0.78
2023-03-03T15:53:46.669Z,0.97
2023-03-03T15:56:27.041Z,0.88
2023-03-03T15:59:17.470Z,0.79
2023-03-03T16:01:54.240Z,0.79
2023-03-03T16:04:27.196Z,0.91
2023-03-03T16:07:02.402Z,0.88
2023-03-03T16:09:42.514Z,1.09
2023-03-03T16:12:21.115Z,1.60
2023-03-03T16:15:03.078Z,1.24
2023-03-03T16:17:42.835Z,0.70
2023-03-03T16:20:22.679Z,0.99
2023-03-03T16:23:17.722Z,0.60
2023-03-03T16:26:04.937Z,1.02
2023-03-03T16:28:43.258Z,1.16
2023-03-03T16:31:18.548Z,1.30
2023-03-03T16:33:55.227Z,0.46
2023-03-03T16:36:31.704Z,0.84
2023-03-03T16:39:04.876Z,0.70
2023-03-03T16:41:43.999Z,0.85
2023-03-03T16:44:34.233Z,0.92
2023-03-03T16:47:17.517Z,0.60
2023-03-03T16:49:56.893Z,0.81
2023-03-03T16:52:31.500Z,0.92
2023-03-03T16:55:06.365Z,1.36
2023-03-03T16:57:41.469Z,1.09
2023-03-03T17:00:13.230Z,1.06
2023-03-03T17:03:13.736Z,1.11
2023-03-03T17:05:51.434Z,0.79
2023-03-03T17:08:37.235Z,1.10
2023-03-03T17:11:12.722Z,0.95
2023-03-03T17:14:00.939Z,0.73
2023-03-03T17:16:51.231Z,0.56
2023-03-03T17:19:41.762Z,0.83
2023-03-03T17:22:20.999Z,0.82
2023-03-03T17:25:08.485Z,0.61
2023-03-03T17:27:51.899Z,0.75
2023-03-03T17:30:25.735Z,1.16
2023-03-03T17:33:29.787Z,0.78
2023-03-03T17:36:13.682Z,0.84
2023-03-03T17:38:57.336Z,0.82
2023-03-03T17:41:34.823Z,1.05
2023-03-03T17:44:11.328Z,0.97
2023-03-03T17:46:45.212Z,0.92
2023-03-03T17:49:47.220Z,0.87
2023-03-03T17:52:27.413Z,0.63
2023-03-03T17:55:30.795Z,0.49
2023-03-03T17:58:16.726Z,0.70
2023-03-03T18:00:55.860Z,0.73
2023-03-03T18:03:51.442Z,1.12
2023-03-03T18:06:41.085Z,0.98
2023-03-03T18:09:26.266Z,0.67
2023-03-03T18:12:04.883Z,0.47
2023-03-03T18:15:05.242Z,0.73
2023-03-03T18:17:41.414Z,0.34
2023-03-03T18:20:38.713Z,0.39
2023-03-03T18:23:43.225Z,0.60
2023-03-03T18:26:32.089Z,0.73
2023-03-03T18:29:23.384Z,1.10
2023-03-03T18:32:05.133Z,0.68
2023-03-03T18:34:38.962Z,0.95
2023-03-03T18:37:12.819Z,0.72
2023-03-03T18:39:45.811Z,0.99
2023-03-03T18:42:37.877Z,0.59
2023-03-03T18:45:57.101Z,0.80
2023-03-03T18:48:52.605Z,1.46
2023-03-03T18:51:49.717Z,0.81
2023-03-03T18:54:30.912Z,0.67
2023-03-03T18:57:19.781Z,0.98
2023-03-03T18:59:59.656Z,0.83
2023-03-03T19:02:39.007Z,0.93
2023-03-03T19:05:20.226Z,0.70
2023-03-03T19:07:53.132Z,0.92
2023-03-03T19:11:01.477Z,0.90
2023-03-03T19:13:48.716Z,0.39
2023-03-03T19:16:36.772Z,0.99
2023-03-03T19:19:12.560Z,1.18
2023-03-03T19:21:43.961Z,0.40
2023-03-03T19:24:41.955Z,0.47
2023-03-03T19:27:23.867Z,0.61
2023-03-03T19:30:08.850Z,0.22
2023-03-03T19:32:49.682Z,0.02
2023-03-03T19:35:28.526Z,0.39
2023-03-03T19:38:09.275Z,0.08
2023-03-03T19:40:47.323Z,0.38
2023-03-03T19:43:30.460Z,0.24
2023-03-03T19:46:28.508Z,-0.01
2023-03-03T19:49:06.579Z,0.48
2023-03-03T19:51:41.930Z,0.43
2023-03-03T19:54:25.767Z,0.53
2023-03-03T19:56:55.817Z,0.17
2023-03-03T19:59:32.765Z,0.12
2023-03-03T20:02:36.450Z,0.29
2023-03-03T20:05:24.764Z,0.31
2023-03-03T20:08:01.758Z,0.36
2023-03-03T20:10:39.428Z,0.10
2023-03-03T20:13:20.544Z,0.07
2023-03-03T20:15:55.565Z,0.14
2023-03-03T20:18:44.998Z,0.31
2023-03-03T20:21:29.598Z,0.08
2023-03-03T20:24:16.509Z,0.43
2023-03-03T20:26:58.990Z,0.24
2023-03-03T20:29:46.064Z,-0.03
2023-03-03T20:32:27.791Z,-0.24
2023-03-03T20:35:05.309Z,-0.18
2023-03-03T20:37:45.557Z,-0.10
2023-03-03T20:40:27.324Z,0.26
2023-03-03T20:43:09.544Z,-0.13
2023-03-03T20:45:51.348Z,0.08
2023-03-03T20:48:32.904Z,-0.18
2023-03-03T20:51:06.896Z,-0.16
2023-03-03T20:53:45.568Z,-0.07
2023-03-03T20:56:18.211Z,0.21
2023-03-03T20:59:06.145Z,0.27
2023-03-03T21:01:42.525Z,-0.09
2023-03-03T21:04:20.453Z,0.26
2023-03-03T21:06:48.872Z,-0.02
2023-03-03T21:09:35.524Z,0.05
2023-03-03T21:12:11.578Z,-0.04
2023-03-03T21:14:41.012Z,-0.14
2023-03-03T21:17:27.480Z,0.18
2023-03-03T21:19:55.619Z,-0.34
2023-03-03T21:22:25.503Z,-0.15
2023-03-03T21:24:55.734Z,-0.39
2023-03-03T21:27:31.800Z,-0.30
2023-03-03T21:30:07.347Z,-0.25
2023-03-03T21:32:38.595Z,-0.43
2023-03-03T21:35:09.633Z,-0.46
2023-03-03T21:37:46.467Z,-0.41
2023-03-03T21:40:16.626Z,-0.42
2023-03-03T21:42:45.159Z,-0.41
2023-03-03T21:45:16.806Z,-0.50
2023-03-03T21:47:44.859Z,-0.48
2023-03-03T21:50:13.149Z,-0.25
2023-03-03T21:52:41.743Z,0.12
2023-03-03T21:55:11.016Z,-0.08
2023-03-03T21:57:39.150Z,-0.13
2023-03-03T22:00:10.718Z,-0.04
2023-03-03T22:02:40.295Z,-0.28
2023-03-03T22:05:08.941Z,-0.67
2023-03-03T22:07:37.071Z,-0.35
2023-03-03T22:10:07.496Z,-0.02
2023-03-03T22:12:35.691Z,-0.61
2023-03-03T22:15:03.764Z,-0.23
2023-03-03T22:17:31.824Z,-0.09
2023-03-03T22:20:01.242Z,-0.40
2023-03-03T22:22:29.263Z,-0.14
2023-03-03T22:24:57.769Z,0.04
2023-03-03T22:27:26.010Z,-0.27
2023-03-03T22:29:54.205Z,-0.22
2023-03-03T22:32:23.793Z,-0.16
2023-03-03T22:34:51.986Z,-0.39
2023-03-03T22:37:21.429Z,-0.30
2023-03-03T22:39:49.482Z,-0.52
2023-03-03T22:42:18.715Z,-0.19
2023-03-03T22:44:46.751Z,-0.28
2023-03-03T22:47:14.799Z,0.02
2023-03-03T22:49:42.869Z,0.23
2023-03-03T22:52:10.987Z,-0.33
2023-03-03T22:54:40.408Z,-0.59
2023-03-03T22:57:08.459Z,-0.56
2023-03-03T22:59:36.522Z,-0.62
2023-03-03T23:02:04.891Z,-0.13
2023-03-03T23:04:34.108Z,-0.43
2023-03-03T23:07:02.595Z,-0.26
2023-03-03T23:09:30.638Z,-0.40
2023-03-03T23:12:00.177Z,-0.34
2023-03-03T23:14:28.206Z,-0.43
2023-03-03T23:16:56.313Z,-0.29
2023-03-03T23:19:24.458Z,-0.33
2023-03-03T23:21:52.598Z,-0.20
2023-03-03T23:24:20.621Z,-0.44
2023-03-03T23:26:51.851Z,-0.10
2023-03-03T23:29:21.242Z,-0.23
2023-03-03T23:31:49.540Z,-0.54
2023-03-03T23:34:17.845Z,-0.48
2023-03-03T23:36:45.874Z,-0.47
2023-03-03T23:39:13.916Z,-0.66
2023-03-03T23:41:42.183Z,-0.52
2023-03-03T23:44:10.241Z,-0.53
2023-03-03T23:46:40.316Z,-0.71
2023-03-03T23:49:08.486Z,-0.73
2023-03-03T23:51:36.513Z,-0.80
2023-03-03T23:54:04.681Z,-0.90
2023-03-03T23:56:32.724Z,-0.40
2023-03-03T23:59:00.980Z,-0.32
